Time,TemperatureF,DewpointF,PressureIn,WindDirection,WindDirectionDegrees,WindSpeedMPH,WindSpeedGustMPH,Humidity,HourlyPrecipIn,Conditions,Clouds,dailyrainin,SoftwareType,DateUTC
2013-01-30 00:00:00,63.8,59.9,30.01,SW,214,0.0,3.0,87,0.00,,---,0.00,VWS V14.01,2013-01-30 05:00:00,
2013-01-30 00:03:00,63.9,60.0,30.01,SSW,203,1.0,3.0,87,0.00,,---,0.00,VWS V14.01,2013-01-30 05:03:00,
2013-01-30 00:05:00,64.1,60.2,30.02,SE,145,2.0,4.0,87,0.00,,---,0.00,VWS V14.01,2013-01-30 05:05:00,
2013-01-30 00:07:00,64.3,60.3,30.02,SSE,149,1.0,4.0,87,0.00,,---,0.00,VWS V14.01,2013-01-30 05:07:00,
2013-01-30 00:09:00,64.5,60.5,30.01,SE,134,1.0,5.0,87,0.00,,---,0.00,VWS V14.01,2013-01-30 05:09:00,
2013-01-30 00:15:00,65.0,60.7,30.01,SSE,150,1.0,5.0,86,0.00,,---,0.00,VWS V14.01,2013-01-30 05:15:00,
2013-01-30 00:21:00,65.3,61.0,30.01,West,260,1.0,5.0,86,0.00,,---,0.00,VWS V14.01,2013-01-30 05:21:00,
2013-01-30 00:27:00,65.6,61.0,30.01,SSE,165,2.0,7.0,85,0.00,,---,0.00,VWS V14.01,2013-01-30 05:27:00,
2013-01-30 00:30:00,65.6,61.0,30.01,South,172,2.0,7.0,85,0.00,,---,0.00,VWS V14.01,2013-01-30 05:30:00,
2013-01-30 00:33:00,65.7,61.1,30.01,East,101,1.0,5.0,85,0.00,,---,0.00,VWS V14.01,2013-01-30 05:33:00,
2013-01-30 00:39:00,65.8,61.2,30.00,ESE,122,2.0,7.0,85,0.00,,---,0.00,VWS V14.01,2013-01-30 05:39:00,
2013-01-30 00:45:00,65.9,61.3,30.00,South,169,2.0,7.0,85,0.00,,---,0.00,VWS V14.01,2013-01-30 05:45:00,
2013-01-30 00:51:00,65.8,61.2,30.00,ESE,113,4.0,7.0,85,0.00,,---,0.00,VWS V14.01,2013-01-30 05:51:00,
2013-01-30 00:57:00,65.8,61.2,29.99,South,190,1.0,7.0,85,0.00,,---,0.00,VWS V14.01,2013-01-30 05:57:00,
2013-01-30 01:00:00,65.8,61.2,29.99,SSE,167,1.0,7.0,85,0.00,,---,0.00,VWS V14.01,2013-01-30 06:00:00,
2013-01-30 01:03:00,65.7,61.1,29.99,South,179,2.0,3.0,85,0.00,,---,0.00,VWS V14.01,2013-01-30 06:03:00,
2013-01-30 01:09:00,65.7,61.1,29.99,West,277,3.0,6.0,85,0.00,,---,0.00,VWS V14.01,2013-01-30 06:09:00,
2013-01-30 01:15:00,65.6,61.0,29.99,ESE,108,2.0,6.0,85,0.00,,---,0.00,VWS V14.01,2013-01-30 06:15:00,
2013-01-30 01:21:00,65.5,61.2,29.98,South,172,4.0,6.0,86,0.00,,---,0.00,VWS V14.01,2013-01-30 06:21:00,
2013-01-30 01:27:00,65.5,61.2,29.98,SSE,166,2.0,9.0,86,0.00,,---,0.00,VWS V14.01,2013-01-30 06:27:00,
2013-01-30 01:30:00,65.4,61.1,29.98,SSE,165,2.0,9.0,86,0.00,,---,0.00,VWS V14.01,2013-01-30 06:30:00,
2013-01-30 01:33:00,65.3,61.0,29.97,SE,142,2.0,4.0,86,0.00,,---,0.00,VWS V14.01,2013-01-30 06:33:00,
2013-01-30 01:39:00,65.1,61.1,29.98,SSE,160,3.0,7.0,87,0.00,,---,0.00,VWS V14.01,2013-01-30 06:39:00,
2013-01-30 01:45:00,64.9,60.9,29.97,ESE,112,3.0,7.0,87,0.00,,---,0.00,VWS V14.01,2013-01-30 06:45:00,
2013-01-30 01:51:00,64.7,60.8,29.96,SSE,152,2.0,7.0,87,0.00,,---,0.00,VWS V14.01,2013-01-30 06:51:00,
2013-01-30 01:58:00,64.6,60.7,29.96,SSE,163,3.0,7.0,87,0.00,,---,0.00,VWS V14.01,2013-01-30 06:58:00,
2013-01-30 02:00:00,64.6,61.0,29.96,SSE,153,2.0,7.0,88,0.00,,---,0.00,VWS V14.01,2013-01-30 07:00:00,
2013-01-30 02:04:00,64.6,61.0,29.97,SSE,152,2.0,4.0,88,0.00,,---,0.00,VWS V14.01,2013-01-30 07:04:00,
2013-01-30 02:10:00,64.5,60.9,29.96,SSE,160,4.0,6.0,88,0.00,,---,0.00,VWS V14.01,2013-01-30 07:10:00,
2013-01-30 02:16:00,64.6,61.0,29.96,SE,141,0.0,6.0,88,0.00,,---,0.00,VWS V14.01,2013-01-30 07:16:00,
2013-01-30 02:22:00,64.5,60.9,29.96,SE,142,4.0,6.0,88,0.00,,---,0.00,VWS V14.01,2013-01-30 07:22:00,
2013-01-30 02:28:00,64.5,60.9,29.96,SW,231,1.0,6.0,88,0.00,,---,0.00,VWS V14.01,2013-01-30 07:28:00,
2013-01-30 02:30:00,64.6,61.0,29.96,SE,144,2.0,6.0,88,0.00,,---,0.00,VWS V14.01,2013-01-30 07:30:00,
2013-01-30 02:34:00,64.5,60.9,29.96,SSE,155,0.0,5.0,88,0.00,,---,0.00,VWS V14.01,2013-01-30 07:34:00,
2013-01-30 02:40:00,64.5,60.9,29.95,SE,134,0.0,5.0,88,0.00,,---,0.00,VWS V14.01,2013-01-30 07:40:00,
2013-01-30 02:46:00,64.3,61.0,29.95,SE,146,1.0,5.0,89,0.00,,---,0.00,VWS V14.01,2013-01-30 07:46:00,
2013-01-30 02:52:00,64.3,61.0,29.95,ESE,109,2.0,5.0,89,0.00,,---,0.00,VWS V14.01,2013-01-30 07:52:00,
2013-01-30 02:58:00,64.2,60.9,29.95,SSW,201,2.0,8.0,89,0.00,,---,0.00,VWS V14.01,2013-01-30 07:58:00,
2013-01-30 03:00:00,64.1,60.8,29.95,SSE,160,1.0,8.0,89,0.00,,---,0.00,VWS V14.01,2013-01-30 08:00:00,
2013-01-30 03:04:00,64.1,60.8,29.95,South,183,2.0,4.0,89,0.00,,---,0.00,VWS V14.01,2013-01-30 08:04:00,
2013-01-30 03:10:00,64.0,60.7,29.94,SE,139,1.0,4.0,89,0.00,,---,0.00,VWS V14.01,2013-01-30 08:10:00,
2013-01-30 03:16:00,63.9,60.6,29.94,SSE,165,1.0,4.0,89,0.00,,---,0.00,VWS V14.01,2013-01-30 08:16:00,
2013-01-30 03:22:00,63.9,60.6,29.94,SSE,163,3.0,5.0,89,0.00,,---,0.00,VWS V14.01,2013-01-30 08:22:00,
2013-01-30 03:28:00,63.8,60.5,29.94,SSE,149,2.0,5.0,89,0.00,,---,0.00,VWS V14.01,2013-01-30 08:28:00,
2013-01-30 03:30:00,63.9,60.6,29.93,SSE,156,4.0,5.0,89,0.00,,---,0.00,VWS V14.01,2013-01-30 08:30:00,
2013-01-30 03:34:00,63.8,60.8,29.93,SE,146,1.0,6.0,90,0.00,,---,0.00,VWS V14.01,2013-01-30 08:34:00,
2013-01-30 03:40:00,63.8,60.8,29.93,SSW,197,2.0,6.0,90,0.00,,---,0.00,VWS V14.01,2013-01-30 08:40:00,
2013-01-30 03:46:00,63.7,60.7,29.92,SSE,158,2.0,6.0,90,0.00,,---,0.00,VWS V14.01,2013-01-30 08:46:00,
2013-01-30 03:52:00,63.7,60.7,29.92,SSW,197,0.0,6.0,90,0.00,,---,0.00,VWS V14.01,2013-01-30 08:52:00,
2013-01-30 03:58:00,63.7,60.7,29.92,SW,224,1.0,6.0,90,0.00,,---,0.00,VWS V14.01,2013-01-30 08:58:00,
2013-01-30 04:00:00,63.7,60.7,29.92,SSE,153,2.0,6.0,90,0.00,,---,0.00,VWS V14.01,2013-01-30 09:00:00,
2013-01-30 04:04:00,63.6,60.6,29.91,SE,145,2.0,3.0,90,0.00,,---,0.00,VWS V14.01,2013-01-30 09:04:00,
2013-01-30 04:10:00,63.6,60.6,29.92,SSE,150,2.0,4.0,90,0.00,,---,0.00,VWS V14.01,2013-01-30 09:10:00,
2013-01-30 04:17:00,63.6,60.6,29.92,SSW,213,2.0,5.0,90,0.00,,---,0.00,VWS V14.01,2013-01-30 09:17:00,
2013-01-30 04:23:00,63.6,60.6,29.92,SSE,165,4.0,5.0,90,0.00,,---,0.00,VWS V14.01,2013-01-30 09:23:00,
2013-01-30 04:29:00,63.6,60.6,29.91,SSE,152,1.0,5.0,90,0.00,,---,0.00,VWS V14.01,2013-01-30 09:29:00,
2013-01-30 04:30:00,63.5,60.5,29.91,SE,135,3.0,5.0,90,0.00,,---,0.00,VWS V14.01,2013-01-30 09:30:00,
2013-01-30 04:35:00,63.5,60.8,29.91,SSE,151,1.0,4.0,91,0.00,,---,0.00,VWS V14.01,2013-01-30 09:35:00,
2013-01-30 04:41:00,63.4,60.7,29.91,SE,144,2.0,4.0,91,0.00,,---,0.00,VWS V14.01,2013-01-30 09:41:00,
2013-01-30 04:47:00,63.4,60.7,29.90,SW,236,2.0,4.0,91,0.00,,---,0.00,VWS V14.01,2013-01-30 09:47:00,
2013-01-30 04:53:00,63.4,60.7,29.90,SSW,193,1.0,5.0,91,0.00,,---,0.00,VWS V14.01,2013-01-30 09:53:00,
2013-01-30 04:59:00,63.4,60.7,29.90,SSE,160,1.0,5.0,91,0.00,,---,0.00,VWS V14.01,2013-01-30 09:59:00,
2013-01-30 05:00:00,63.4,60.7,29.90,South,188,1.0,5.0,91,0.00,,---,0.00,VWS V14.01,2013-01-30 10:00:00,
2013-01-30 05:05:00,63.3,60.6,29.90,SSE,149,2.0,2.0,91,0.00,,---,0.00,VWS V14.01,2013-01-30 10:05:00,
2013-01-30 05:11:00,63.4,60.7,29.90,SE,139,1.0,4.0,91,0.00,,---,0.00,VWS V14.01,2013-01-30 10:11:00,
2013-01-30 05:17:00,63.3,60.6,29.90,SE,126,1.0,5.0,91,0.00,,---,0.00,VWS V14.01,2013-01-30 10:17:00,
2013-01-30 05:23:00,63.3,60.6,29.90,SSE,165,2.0,5.0,91,0.00,,---,0.00,VWS V14.01,2013-01-30 10:23:00,
2013-01-30 05:29:00,63.2,60.5,29.90,SSW,193,1.0,5.0,91,0.00,,---,0.00,VWS V14.01,2013-01-30 10:29:00,
2013-01-30 05:30:00,63.2,60.5,29.90,SE,124,2.0,5.0,91,0.00,,---,0.00,VWS V14.01,2013-01-30 10:30:00,
2013-01-30 05:35:00,63.2,60.5,29.90,SSE,163,2.0,4.0,91,0.00,,---,0.00,VWS V14.01,2013-01-30 10:35:00,
2013-01-30 05:41:00,63.2,60.5,29.89,SSE,158,0.0,4.0,91,0.00,,---,0.00,VWS V14.01,2013-01-30 10:41:00,
2013-01-30 05:47:00,63.1,60.4,29.89,SE,145,1.0,4.0,91,0.00,,---,0.00,VWS V14.01,2013-01-30 10:47:00,
2013-01-30 05:53:00,63.0,60.3,29.89,SSE,156,2.0,4.0,91,0.00,,---,0.00,VWS V14.01,2013-01-30 10:53:00,
2013-01-30 05:59:00,63.0,60.3,29.89,SW,219,2.0,4.0,91,0.00,,---,0.00,VWS V14.01,2013-01-30 10:59:00,
2013-01-30 06:00:00,63.0,60.3,29.89,SSE,150,2.0,4.0,91,0.00,,---,0.00,VWS V14.01,2013-01-30 11:00:00,
2013-01-30 06:05:00,62.9,60.2,29.88,SSE,160,1.0,3.0,91,0.00,,---,0.00,VWS V14.01,2013-01-30 11:05:00,
2013-01-30 06:11:00,62.9,60.2,29.88,SSE,150,2.0,4.0,91,0.00,,---,0.00,VWS V14.01,2013-01-30 11:11:00,
2013-01-30 06:17:00,62.9,60.2,29.87,South,173,1.0,4.0,91,0.00,,---,0.00,VWS V14.01,2013-01-30 11:17:00,
2013-01-30 06:23:00,62.9,60.2,29.87,SSW,207,2.0,4.0,91,0.00,,---,0.00,VWS V14.01,2013-01-30 11:23:00,
2013-01-30 06:29:00,63.0,60.3,29.87,SW,222,2.0,9.0,91,0.00,,---,0.00,VWS V14.01,2013-01-30 11:29:00,
2013-01-30 06:30:00,63.0,60.3,29.87,SSW,205,2.0,9.0,91,0.00,,---,0.00,VWS V14.01,2013-01-30 11:30:00,
2013-01-30 06:35:00,63.0,60.3,29.87,SE,141,3.0,6.0,91,0.00,,---,0.00,VWS V14.01,2013-01-30 11:35:00,
2013-01-30 06:41:00,63.0,60.3,29.87,South,176,1.0,6.0,91,0.00,,---,0.00,VWS V14.01,2013-01-30 11:41:00,
2013-01-30 06:47:00,63.1,60.4,29.86,SSE,149,1.0,7.0,91,0.00,,---,0.00,VWS V14.01,2013-01-30 11:47:00,
2013-01-30 06:54:00,63.2,60.5,29.86,SSE,167,3.0,7.0,91,0.00,,---,0.00,VWS V14.01,2013-01-30 11:54:00,
2013-01-30 07:00:00,63.2,60.5,29.86,SE,126,4.0,13.0,91,0.00,,---,0.00,VWS V14.01,2013-01-30 12:00:00,
2013-01-30 07:06:00,63.2,60.5,29.85,South,180,2.0,4.0,91,0.00,,---,0.00,VWS V14.01,2013-01-30 12:06:00,
2013-01-30 07:12:00,63.2,60.5,29.85,SSE,158,1.0,8.0,91,0.00,,---,0.00,VWS V14.01,2013-01-30 12:12:00,
2013-01-30 07:18:00,63.2,60.5,29.85,SSE,159,2.0,8.0,91,0.00,,---,0.00,VWS V14.01,2013-01-30 12:18:00,
2013-01-30 07:24:00,63.2,60.5,29.85,ESE,110,1.0,8.0,91,0.00,,---,0.00,VWS V14.01,2013-01-30 12:24:00,
2013-01-30 07:30:00,63.2,60.8,29.85,SSE,166,2.0,8.0,92,0.00,,---,0.00,VWS V14.01,2013-01-30 12:30:00,
2013-01-30 07:36:00,63.2,60.8,29.84,SSE,165,3.0,5.0,92,0.00,,---,0.00,VWS V14.01,2013-01-30 12:36:00,
2013-01-30 07:42:00,63.2,60.8,29.84,SSE,165,3.0,9.0,92,0.00,,---,0.00,VWS V14.01,2013-01-30 12:42:00,
2013-01-30 07:48:00,63.3,60.9,29.85,West,276,2.0,9.0,92,0.00,,---,0.00,VWS V14.01,2013-01-30 12:48:00,
2013-01-30 07:54:00,63.3,60.9,29.85,SSE,150,1.0,9.0,92,0.00,,---,0.00,VWS V14.01,2013-01-30 12:54:00,
2013-01-30 08:00:00,63.4,61.0,29.85,South,188,2.0,9.0,92,0.00,,---,0.00,VWS V14.01,2013-01-30 13:00:00,
2013-01-30 08:06:00,63.5,60.8,29.84,SE,139,0.0,6.0,91,0.00,,---,0.00,VWS V14.01,2013-01-30 13:06:00,
2013-01-30 08:12:00,63.5,60.8,29.84,South,186,2.0,6.0,91,0.00,,---,0.00,VWS V14.01,2013-01-30 13:12:00,
2013-01-30 08:18:00,63.7,61.0,29.84,SE,139,1.0,6.0,91,0.00,,---,0.00,VWS V14.01,2013-01-30 13:18:00,
2013-01-30 08:24:00,63.8,61.1,29.83,SE,139,3.0,7.0,91,0.00,,---,0.00,VWS V14.01,2013-01-30 13:24:00,
2013-01-30 08:30:00,64.0,61.3,29.83,SSW,194,3.0,8.0,91,0.00,,---,0.00,VWS V14.01,2013-01-30 13:30:00,
2013-01-30 08:36:00,64.2,61.5,29.83,SSE,162,1.0,6.0,91,0.00,,---,0.00,VWS V14.01,2013-01-30 13:36:00,
2013-01-30 08:42:00,64.4,61.4,29.83,SSW,205,3.0,6.0,90,0.00,,---,0.00,VWS V14.01,2013-01-30 13:42:00,
2013-01-30 08:48:00,64.5,61.5,29.83,South,170,5.0,6.0,90,0.00,,---,0.00,VWS V14.01,2013-01-30 13:48:00,
2013-01-30 08:54:00,64.6,61.6,29.83,South,183,2.0,7.0,90,0.00,,---,0.00,VWS V14.01,2013-01-30 13:54:00,
2013-01-30 09:00:00,64.7,61.7,29.84,ESE,113,2.0,8.0,90,0.00,,---,0.00,VWS V14.01,2013-01-30 14:00:00,
2013-01-30 09:06:00,64.7,61.7,29.83,SE,131,3.0,10.0,90,0.00,,---,0.00,VWS V14.01,2013-01-30 14:06:00,
2013-01-30 09:12:00,64.8,61.8,29.83,ESE,115,2.0,10.0,90,0.00,,---,0.00,VWS V14.01,2013-01-30 14:12:00,
2013-01-30 09:19:00,64.9,61.9,29.82,SE,135,4.0,10.0,90,0.00,,---,0.00,VWS V14.01,2013-01-30 14:19:00,
2013-01-30 09:25:00,64.9,61.9,29.82,SSE,150,3.0,10.0,90,0.00,,---,0.00,VWS V14.01,2013-01-30 14:25:00,
2013-01-30 09:30:00,64.9,61.9,29.82,SW,224,4.0,10.0,90,0.00,,---,0.00,VWS V14.01,2013-01-30 14:30:00,
2013-01-30 09:37:00,65.0,62.0,29.81,West,271,1.0,8.0,90,0.00,,---,0.00,VWS V14.01,2013-01-30 14:37:00,
2013-01-30 09:43:00,65.0,61.7,29.81,SW,218,2.0,9.0,89,0.00,,---,0.00,VWS V14.01,2013-01-30 14:43:00,
2013-01-30 09:49:00,65.2,61.9,29.81,SSE,156,5.0,9.0,89,0.00,,---,0.00,VWS V14.01,2013-01-30 14:49:00,
2013-01-30 09:55:00,65.4,61.8,29.80,SSW,207,1.0,14.0,88,0.00,,---,0.00,VWS V14.01,2013-01-30 14:55:00,
2013-01-30 10:00:00,65.6,62.0,29.80,SSE,158,6.0,14.0,88,0.00,,---,0.00,VWS V14.01,2013-01-30 15:00:00,
2013-01-30 10:07:00,65.7,61.7,29.80,SE,127,3.0,10.0,87,0.00,,---,0.00,VWS V14.01,2013-01-30 15:07:00,
2013-01-30 10:13:00,66.0,61.7,29.80,SE,141,2.0,10.0,86,0.00,,---,0.00,VWS V14.01,2013-01-30 15:13:00,
2013-01-30 10:19:00,66.3,61.7,29.80,SE,131,2.0,13.0,85,0.00,,---,0.00,VWS V14.01,2013-01-30 15:19:00,
2013-01-30 10:25:00,66.5,61.5,29.80,SSE,162,2.0,13.0,84,0.00,,---,0.00,VWS V14.01,2013-01-30 15:25:00,
2013-01-30 10:30:00,66.6,61.6,29.80,South,170,4.0,13.0,84,0.00,,---,0.00,VWS V14.01,2013-01-30 15:30:00,
2013-01-30 10:35:00,66.7,61.4,29.80,South,170,3.0,10.0,83,0.00,,---,0.00,VWS V14.01,2013-01-30 15:35:00,
2013-01-30 10:41:00,66.8,61.5,29.79,South,172,2.0,10.0,83,0.00,,---,0.00,VWS V14.01,2013-01-30 15:41:00,
2013-01-30 10:47:00,66.8,61.5,29.79,SSW,201,2.0,10.0,83,0.00,,---,0.00,VWS V14.01,2013-01-30 15:47:00,
2013-01-30 10:53:00,66.9,61.6,29.78,South,173,2.0,10.0,83,0.00,,---,0.00,VWS V14.01,2013-01-30 15:53:00,
2013-01-30 10:59:00,67.0,61.7,29.78,South,176,2.0,10.0,83,0.00,,---,0.00,VWS V14.01,2013-01-30 15:59:00,
2013-01-30 11:00:00,67.0,61.7,29.78,South,176,3.0,10.0,83,0.00,,---,0.00,VWS V14.01,2013-01-30 16:00:00,
2013-01-30 11:05:00,67.0,61.7,29.78,South,184,5.0,7.0,83,0.00,,---,0.00,VWS V14.01,2013-01-30 16:05:00,
2013-01-30 11:11:00,67.0,61.7,29.78,ESE,120,4.0,14.0,83,0.00,,---,0.00,VWS V14.01,2013-01-30 16:11:00,
2013-01-30 11:17:00,67.0,61.7,29.77,West,260,4.0,14.0,83,0.00,,---,0.00,VWS V14.01,2013-01-30 16:17:00,
2013-01-30 11:23:00,67.0,61.7,29.76,SW,231,7.0,14.0,83,0.00,,---,0.00,VWS V14.01,2013-01-30 16:23:00,
2013-01-30 11:29:00,66.9,61.6,29.76,SE,130,2.0,14.0,83,0.00,,---,0.00,VWS V14.01,2013-01-30 16:29:00,
2013-01-30 11:30:00,66.9,61.6,29.76,South,169,3.0,14.0,83,0.00,,---,0.00,VWS V14.01,2013-01-30 16:30:00,
2013-01-30 11:36:00,66.9,61.6,29.76,SSW,207,5.0,9.0,83,0.00,,---,0.00,VWS V14.01,2013-01-30 16:36:00,
2013-01-30 11:42:00,67.0,61.7,29.75,SSE,153,2.0,9.0,83,0.00,,---,0.00,VWS V14.01,2013-01-30 16:42:00,
2013-01-30 11:48:00,67.1,61.8,29.75,SSW,200,2.0,9.0,83,0.00,,---,0.00,VWS V14.01,2013-01-30 16:48:00,
2013-01-30 11:54:00,67.2,61.9,29.75,WSW,239,3.0,9.0,83,0.00,,---,0.00,VWS V14.01,2013-01-30 16:54:00,
2013-01-30 12:00:00,67.4,62.1,29.74,East,83,6.0,9.0,83,0.00,,---,0.00,VWS V14.01,2013-01-30 17:00:00,
2013-01-30 12:06:00,67.5,62.2,29.74,SSE,153,2.0,8.0,83,0.00,,---,0.00,VWS V14.01,2013-01-30 17:06:00,
2013-01-30 12:12:00,67.5,62.2,29.73,SSE,167,1.0,8.0,83,0.00,,---,0.00,VWS V14.01,2013-01-30 17:12:00,
2013-01-30 12:18:00,67.5,62.2,29.73,South,169,1.0,8.0,83,0.00,,---,0.00,VWS V14.01,2013-01-30 17:18:00,
2013-01-30 12:24:00,67.5,62.2,29.73,SE,143,6.0,10.0,83,0.00,,---,0.00,VWS V14.01,2013-01-30 17:24:00,
2013-01-30 12:30:00,67.5,62.2,29.72,SSE,153,3.0,13.0,83,0.00,,---,0.00,VWS V14.01,2013-01-30 17:30:00,
2013-01-30 12:36:00,67.5,62.2,29.72,SSE,165,1.0,8.0,83,0.00,,---,0.00,VWS V14.01,2013-01-30 17:36:00,
2013-01-30 12:42:00,67.6,62.3,29.71,SSE,160,1.0,19.0,83,0.00,,---,0.00,VWS V14.01,2013-01-30 17:42:00,
2013-01-30 12:48:00,67.6,62.3,29.69,West,260,1.0,19.0,83,0.00,,---,0.00,VWS V14.01,2013-01-30 17:48:00,
2013-01-30 12:54:00,67.6,62.6,29.68,SSE,162,5.0,19.0,84,0.00,,---,0.00,VWS V14.01,2013-01-30 17:54:00,
2013-01-30 13:00:00,67.8,62.8,29.68,SW,214,5.0,19.0,84,0.00,,---,0.00,VWS V14.01,2013-01-30 18:00:00,
2013-01-30 13:06:00,67.8,62.5,29.67,South,190,4.0,6.0,83,0.00,,---,0.00,VWS V14.01,2013-01-30 18:06:00,
2013-01-30 13:12:00,67.8,62.8,29.67,South,177,5.0,11.0,84,0.00,,---,0.00,VWS V14.01,2013-01-30 18:12:00,
2013-01-30 13:18:00,67.8,62.8,29.67,ESE,121,1.0,11.0,84,0.00,,---,0.00,VWS V14.01,2013-01-30 18:18:00,
2013-01-30 13:24:00,67.6,62.9,29.67,SE,142,5.0,11.0,85,0.00,,---,0.00,VWS V14.01,2013-01-30 18:24:00,
2013-01-30 13:30:00,67.4,62.7,29.67,SSE,153,3.0,11.0,85,0.00,,---,0.00,VWS V14.01,2013-01-30 18:30:00,
2013-01-30 13:36:00,67.3,63.0,29.66,SSE,164,1.0,12.0,86,0.00,,---,0.00,VWS V14.01,2013-01-30 18:36:00,
2013-01-30 13:43:00,67.2,62.9,29.65,South,188,3.0,12.0,86,0.00,,---,0.00,VWS V14.01,2013-01-30 18:43:00,
2013-01-30 13:49:00,67.2,62.9,29.65,SSE,163,4.0,12.0,86,0.00,,---,0.00,VWS V14.01,2013-01-30 18:49:00,
2013-01-30 13:55:00,67.3,62.6,29.64,SSE,160,1.0,12.0,85,0.00,,---,0.00,VWS V14.01,2013-01-30 18:55:00,
2013-01-30 14:00:00,67.4,62.7,29.63,SSW,193,3.0,12.0,85,0.00,,---,0.00,VWS V14.01,2013-01-30 19:00:00,
2013-01-30 14:07:00,67.5,63.2,29.62,SSE,167,5.0,8.0,86,0.00,,---,0.00,VWS V14.01,2013-01-30 19:07:00,
2013-01-30 14:13:00,67.3,63.0,29.62,SE,127,4.0,8.0,86,0.00,,---,0.00,VWS V14.01,2013-01-30 19:13:00,
2013-01-30 14:19:00,67.3,63.0,29.61,SSE,153,2.0,8.0,86,0.00,,---,0.00,VWS V14.01,2013-01-30 19:19:00,
2013-01-30 14:25:00,67.4,62.7,29.60,South,180,3.0,9.0,85,0.00,,---,0.00,VWS V14.01,2013-01-30 19:25:00,
2013-01-30 14:30:00,67.6,62.9,29.60,SSE,149,4.0,9.0,85,0.00,,---,0.00,VWS V14.01,2013-01-30 19:30:00,
2013-01-30 14:37:00,67.9,62.9,29.60,West,262,5.0,11.0,84,0.00,,---,0.00,VWS V14.01,2013-01-30 19:37:00,
2013-01-30 14:43:00,68.2,63.2,29.59,SSW,193,4.0,11.0,84,0.00,,---,0.00,VWS V14.01,2013-01-30 19:43:00,
2013-01-30 14:49:00,68.3,62.9,29.58,South,177,3.0,11.0,83,0.00,,---,0.00,VWS V14.01,2013-01-30 19:49:00,
2013-01-30 14:55:00,68.3,62.9,29.57,SSE,149,7.0,11.0,83,0.00,,---,0.00,VWS V14.01,2013-01-30 19:55:00,
2013-01-30 15:00:00,68.3,62.9,29.57,SSE,166,3.0,11.0,83,0.00,,---,0.00,VWS V14.01,2013-01-30 20:00:00,
2013-01-30 15:05:00,68.3,62.9,29.56,SE,139,4.0,8.0,83,0.00,,---,0.00,VWS V14.01,2013-01-30 20:05:00,
2013-01-30 15:11:00,68.0,63.3,29.56,SSE,152,3.0,9.0,85,0.00,,---,0.00,VWS V14.01,2013-01-30 20:11:00,
2013-01-30 15:17:00,67.3,63.3,29.56,SSE,156,4.0,9.0,87,0.01,,---,0.01,VWS V14.01,2013-01-30 20:17:00,
2013-01-30 15:23:00,66.8,63.1,29.56,SW,222,3.0,9.0,88,0.01,,---,0.01,VWS V14.01,2013-01-30 20:23:00,
2013-01-30 15:29:00,66.6,63.3,29.55,SSE,150,7.0,9.0,89,0.01,,---,0.01,VWS V14.01,2013-01-30 20:29:00,
2013-01-30 15:30:00,66.5,63.2,29.55,NE,54,4.0,9.0,89,0.01,,---,0.01,VWS V14.01,2013-01-30 20:30:00,
2013-01-30 15:35:00,66.6,62.9,29.54,SSE,149,3.0,7.0,88,0.01,,---,0.01,VWS V14.01,2013-01-30 20:35:00,
2013-01-30 15:41:00,66.7,63.0,29.54,ESE,103,6.0,7.0,88,0.01,,---,0.01,VWS V14.01,2013-01-30 20:41:00,
2013-01-30 15:47:00,66.9,63.2,29.53,SE,141,4.0,10.0,88,0.01,,---,0.01,VWS V14.01,2013-01-30 20:47:00,
2013-01-30 15:53:00,67.2,63.2,29.53,SE,141,3.0,10.0,87,0.01,,---,0.01,VWS V14.01,2013-01-30 20:53:00,
2013-01-30 16:00:00,67.4,63.4,29.52,South,174,5.0,10.0,87,0.02,,---,0.02,VWS V14.01,2013-01-30 21:00:00,
2013-01-30 16:06:00,67.0,63.7,29.52,ESE,119,10.0,11.0,89,0.04,,---,0.04,VWS V14.01,2013-01-30 21:06:00,
2013-01-30 16:12:00,67.0,63.7,29.51,South,181,9.0,15.0,89,0.05,,---,0.05,VWS V14.01,2013-01-30 21:12:00,
2013-01-30 16:18:00,66.8,63.8,29.50,SSE,163,3.0,15.0,90,0.06,,---,0.06,VWS V14.01,2013-01-30 21:18:00,
2013-01-30 16:24:00,66.7,63.7,29.50,SSW,207,3.0,15.0,90,0.06,,---,0.06,VWS V14.01,2013-01-30 21:24:00,
2013-01-30 16:30:00,66.7,63.7,29.49,SW,228,4.0,15.0,90,0.07,,---,0.07,VWS V14.01,2013-01-30 21:30:00,
2013-01-30 16:36:00,66.6,63.9,29.49,SE,139,6.0,14.0,91,0.06,,---,0.07,VWS V14.01,2013-01-30 21:36:00,
2013-01-30 16:42:00,66.7,64.0,29.49,SSE,148,5.0,14.0,91,0.07,,---,0.08,VWS V14.01,2013-01-30 21:42:00,
2013-01-30 16:48:00,66.4,64.0,29.48,South,173,3.0,14.0,92,0.10,,---,0.11,VWS V14.01,2013-01-30 21:48:00,
2013-01-30 16:54:00,65.9,63.8,29.50,South,174,2.0,14.0,93,0.20,,---,0.21,VWS V14.01,2013-01-30 21:54:00,
2013-01-30 17:00:00,65.1,62.4,29.54,WSW,255,7.0,14.0,91,0.52,,---,0.53,VWS V14.01,2013-01-30 22:00:00,
2013-01-30 17:06:00,62.8,60.5,29.52,WNW,302,11.0,11.0,92,0.82,,---,0.84,VWS V14.01,2013-01-30 22:06:00,
2013-01-30 17:12:00,62.0,60.6,29.52,West,280,2.0,13.0,95,0.96,,---,0.98,VWS V14.01,2013-01-30 22:12:00,
2013-01-30 17:18:00,61.8,60.4,29.50,SSW,203,2.0,13.0,95,1.13,,---,1.16,VWS V14.01,2013-01-30 22:18:00,
2013-01-30 17:24:00,61.6,60.5,29.49,SSW,211,2.0,13.0,96,1.19,,---,1.21,VWS V14.01,2013-01-30 22:24:00,
2013-01-30 17:30:00,61.6,60.5,29.51,SW,214,3.0,13.0,96,1.26,,---,1.28,VWS V14.01,2013-01-30 22:30:00,
2013-01-30 17:36:00,61.6,60.5,29.51,WSW,242,1.0,6.0,96,1.25,,---,1.32,VWS V14.01,2013-01-30 22:36:00,
2013-01-30 17:42:00,61.6,60.5,29.51,South,191,1.0,7.0,96,1.27,,---,1.34,VWS V14.01,2013-01-30 22:42:00,
2013-01-30 17:52:00,61.5,60.3,29.49,WSW,253,2.0,7.0,96,1.30,,---,1.37,VWS V14.01,2013-01-30 22:52:00,
2013-01-30 17:58:00,61.4,60.2,29.50,West,278,1.0,7.0,96,1.33,,---,1.40,VWS V14.01,2013-01-30 22:58:00,
2013-01-30 18:00:00,61.3,60.2,29.50,WSW,239,2.0,7.0,96,1.35,,---,1.42,VWS V14.01,2013-01-30 23:00:00,
2013-01-30 18:04:00,61.3,60.2,29.49,South,176,1.0,3.0,96,0.87,,---,1.43,VWS V14.01,2013-01-30 23:04:00,
2013-01-30 18:10:00,61.1,60.0,29.51,SSW,212,5.0,9.0,96,0.90,,---,1.46,VWS V14.01,2013-01-30 23:10:00,
2013-01-30 18:16:00,61.0,59.9,29.50,SW,228,2.0,9.0,96,0.94,,---,1.50,VWS V14.01,2013-01-30 23:16:00,
2013-01-30 18:22:00,60.8,59.7,29.49,ENE,63,1.0,9.0,96,0.96,,---,1.52,VWS V14.01,2013-01-30 23:22:00,
2013-01-30 18:28:00,60.7,59.6,29.51,WSW,238,2.0,9.0,96,0.97,,---,1.53,VWS V14.01,2013-01-30 23:28:00,
2013-01-30 18:30:00,58.8,57.1,29.51,NNW,342,1.0,14.0,94,0.15,,---,1.57,VWS V14.01,2013-01-30 23:30:00,
2013-01-30 18:34:00,60.7,59.6,29.49,NW,309,1.0,5.0,96,0.25,,---,1.53,VWS V14.01,2013-01-30 23:34:00,
2013-01-30 18:40:00,60.6,59.5,29.50,WNW,291,1.0,5.0,96,0.25,,---,1.53,VWS V14.01,2013-01-30 23:40:00,
2013-01-30 18:46:00,60.5,59.4,29.50,NNW,328,2.0,5.0,96,0.25,,---,1.53,VWS V14.01,2013-01-30 23:46:00,
2013-01-30 18:52:00,60.4,59.3,29.50,NW,322,2.0,7.0,96,0.25,,---,1.53,VWS V14.01,2013-01-30 23:52:00,
2013-01-30 18:58:00,60.3,59.2,29.51,NW,326,1.0,7.0,96,0.26,,---,1.54,VWS V14.01,2013-01-30 23:58:00,
2013-01-30 19:00:00,60.2,59.1,29.50,SSE,167,4.0,7.0,96,0.26,,---,1.54,VWS V14.01,2013-01-31 00:00:00,
2013-01-30 19:04:00,60.1,59.0,29.50,SSW,202,2.0,4.0,96,0.13,,---,1.55,VWS V14.01,2013-01-31 00:04:00,
2013-01-30 19:10:00,59.9,58.8,29.51,WSW,248,1.0,6.0,96,0.14,,---,1.56,VWS V14.01,2013-01-31 00:10:00,
2013-01-30 19:16:00,59.6,58.2,29.51,WNW,301,0.0,14.0,95,0.15,,---,1.57,VWS V14.01,2013-01-31 00:16:00,
2013-01-30 19:22:00,59.4,58.0,29.51,South,177,1.0,14.0,95,0.15,,---,1.57,VWS V14.01,2013-01-31 00:22:00,
2013-01-30 19:28:00,59.0,57.6,29.52,ESE,122,1.0,14.0,95,0.15,,---,1.57,VWS V14.01,2013-01-31 00:28:00,
2013-01-30 19:30:00,58.8,57.1,29.51,NNW,342,1.0,14.0,94,0.15,,---,1.57,VWS V14.01,2013-01-31 00:30:00,
2013-01-30 19:34:00,58.2,55.9,29.53,SSW,193,3.0,9.0,92,0.04,,---,1.57,VWS V14.01,2013-01-31 00:34:00,
2013-01-30 19:40:00,57.5,54.9,29.54,WNW,300,4.0,9.0,91,0.04,,---,1.57,VWS V14.01,2013-01-31 00:40:00,
2013-01-30 19:46:00,56.7,54.1,29.54,NNE,21,2.0,9.0,91,0.04,,---,1.57,VWS V14.01,2013-01-31 00:46:00,
2013-01-30 19:52:00,56.0,53.7,29.55,NW,314,2.0,9.0,92,0.04,,---,1.57,VWS V14.01,2013-01-31 00:52:00,
2013-01-30 19:58:00,55.5,53.5,29.54,South,190,1.0,9.0,93,0.04,,---,1.57,VWS V14.01,2013-01-31 00:58:00,
2013-01-30 20:00:00,55.3,53.0,29.55,North,354,2.0,9.0,92,0.04,,---,1.57,VWS V14.01,2013-01-31 01:00:00,
2013-01-30 20:04:00,55.0,52.7,29.55,NW,304,0.0,5.0,92,0.03,,---,1.57,VWS V14.01,2013-01-31 01:04:00,
2013-01-30 20:11:00,54.7,52.4,29.55,West,270,2.0,8.0,92,0.03,,---,1.57,VWS V14.01,2013-01-31 01:11:00,
2013-01-30 20:17:00,54.3,52.0,29.56,WNW,285,3.0,8.0,92,0.03,,---,1.57,VWS V14.01,2013-01-31 01:17:00,
2013-01-30 20:23:00,54.0,51.7,29.58,West,280,1.0,8.0,92,0.03,,---,1.57,VWS V14.01,2013-01-31 01:23:00,
2013-01-30 20:29:00,53.7,51.4,29.58,WSW,248,4.0,8.0,92,0.05,,---,1.59,VWS V14.01,2013-01-31 01:29:00,
2013-01-30 20:30:00,53.5,51.2,29.59,WNW,293,0.0,8.0,92,0.05,,---,1.59,VWS V14.01,2013-01-31 01:30:00,
2013-01-30 20:35:00,53.1,51.1,29.58,West,267,0.0,4.0,93,0.03,,---,1.60,VWS V14.01,2013-01-31 01:35:00,
2013-01-30 20:41:00,52.7,50.7,29.57,SSW,194,1.0,8.0,93,0.05,,---,1.62,VWS V14.01,2013-01-31 01:41:00,
2013-01-30 20:47:00,52.5,50.8,29.56,NNW,333,1.0,8.0,94,0.05,,---,1.62,VWS V14.01,2013-01-31 01:47:00,
2013-01-30 20:53:00,52.2,50.8,29.56,SW,225,1.0,8.0,95,0.05,,---,1.62,VWS V14.01,2013-01-31 01:53:00,
2013-01-30 20:59:00,51.9,50.2,29.56,WSW,238,2.0,8.0,94,0.05,,---,1.62,VWS V14.01,2013-01-31 01:59:00,
2013-01-30 21:00:00,48.4,46.5,29.58,WSW,256,4.0,13.0,93,0.05,,---,1.64,VWS V14.01,2013-01-31 02:00:00,
2013-01-30 21:05:00,51.5,49.8,29.57,SSW,207,8.0,8.0,94,0.05,,---,1.62,VWS V14.01,2013-01-31 02:05:00,
2013-01-30 21:11:00,51.1,49.4,29.57,SW,233,2.0,8.0,94,0.05,,---,1.62,VWS V14.01,2013-01-31 02:11:00,
2013-01-30 21:17:00,50.8,49.1,29.55,WNW,288,2.0,8.0,94,0.05,,---,1.62,VWS V14.01,2013-01-31 02:17:00,
2013-01-30 21:23:00,50.4,48.7,29.57,SSW,195,3.0,8.0,94,0.05,,---,1.62,VWS V14.01,2013-01-31 02:23:00,
2013-01-30 21:29:00,50.0,48.3,29.57,WSW,250,5.0,10.0,94,0.05,,---,1.62,VWS V14.01,2013-01-31 02:29:00,
2013-01-30 21:30:00,49.9,48.0,29.57,SSE,155,8.0,10.0,93,0.06,,---,1.63,VWS V14.01,2013-01-31 02:30:00,
2013-01-30 21:35:00,49.6,47.7,29.59,SW,218,3.0,13.0,93,0.05,,---,1.64,VWS V14.01,2013-01-31 02:35:00,
2013-01-30 21:41:00,49.2,47.3,29.59,SSE,159,2.0,13.0,93,0.05,,---,1.64,VWS V14.01,2013-01-31 02:41:00,
2013-01-30 21:47:00,48.9,47.0,29.59,WNW,290,1.0,13.0,93,0.05,,---,1.64,VWS V14.01,2013-01-31 02:47:00,
2013-01-30 21:53:00,48.7,46.8,29.57,SSE,159,2.0,13.0,93,0.05,,---,1.64,VWS V14.01,2013-01-31 02:53:00,
2013-01-30 21:59:00,48.4,46.5,29.58,WSW,250,2.0,13.0,93,0.05,,---,1.64,VWS V14.01,2013-01-31 02:59:00,
2013-01-30 22:00:00,48.4,46.5,29.58,WSW,256,4.0,13.0,93,0.05,,---,1.64,VWS V14.01,2013-01-31 03:00:00,
2013-01-30 22:05:00,48.3,46.1,29.57,SSW,198,11.0,15.0,92,0.02,,---,1.64,VWS V14.01,2013-01-31 03:05:00,
2013-01-30 22:11:00,48.1,45.6,29.59,West,266,1.0,15.0,91,0.03,,---,1.65,VWS V14.01,2013-01-31 03:11:00,
2013-01-30 22:18:00,47.9,45.4,29.60,SSW,207,4.0,15.0,91,0.03,,---,1.65,VWS V14.01,2013-01-31 03:18:00,
2013-01-30 22:24:00,47.8,45.6,29.58,West,263,4.0,15.0,92,0.03,,---,1.65,VWS V14.01,2013-01-31 03:24:00,
2013-01-30 22:30:00,47.6,45.4,29.61,SW,226,5.0,15.0,92,0.03,,---,1.65,VWS V14.01,2013-01-31 03:30:00,
2013-01-30 22:36:00,47.4,45.5,29.60,WSW,249,1.0,6.0,93,0.02,,---,1.65,VWS V14.01,2013-01-31 03:36:00,
2013-01-30 22:42:00,47.3,45.4,29.60,NW,304,1.0,8.0,93,0.02,,---,1.65,VWS V14.01,2013-01-31 03:42:00,
2013-01-30 22:48:00,47.2,45.3,29.61,WSW,238,2.0,8.0,93,0.02,,---,1.65,VWS V14.01,2013-01-31 03:48:00,
2013-01-30 22:54:00,47.1,45.5,29.60,SW,215,3.0,8.0,94,0.02,,---,1.65,VWS V14.01,2013-01-31 03:54:00,
2013-01-30 23:00:00,47.1,45.5,29.61,SW,231,1.0,8.0,94,0.02,,---,1.65,VWS V14.01,2013-01-31 04:00:00,
2013-01-30 23:06:00,47.2,45.6,29.59,NW,311,1.0,9.0,94,0.01,,---,1.65,VWS V14.01,2013-01-31 04:06:00,
2013-01-30 23:12:00,47.2,45.6,29.61,SSW,195,1.0,9.0,94,0.01,,---,1.65,VWS V14.01,2013-01-31 04:12:00,
2013-01-30 23:18:00,47.2,45.6,29.61,NW,313,1.0,9.0,94,0.01,,---,1.65,VWS V14.01,2013-01-31 04:18:00,
2013-01-30 23:24:00,47.3,45.4,29.61,WSW,245,3.0,9.0,93,0.01,,---,1.65,VWS V14.01,2013-01-31 04:24:00,
2013-01-30 23:30:00,47.2,45.3,29.61,SW,215,4.0,9.0,93,0.01,,---,1.65,VWS V14.01,2013-01-31 04:30:00,
2013-01-30 23:36:00,47.2,45.3,29.62,SSW,212,4.0,5.0,93,0.00,,---,1.65,VWS V14.01,2013-01-31 04:36:00,
2013-01-30 23:42:00,47.1,45.2,29.62,NNE,22,2.0,8.0,93,0.00,,---,1.65,VWS V14.01,2013-01-31 04:42:00,
2013-01-30 23:48:00,47.0,45.1,29.62,WSW,245,2.0,9.0,93,0.00,,---,1.65,VWS V14.01,2013-01-31 04:48:00,
2013-01-30 23:54:00,46.8,44.9,29.62,South,184,2.0,9.0,93,0.00,,---,1.65,VWS V14.01,2013-01-31 04:54:00,